Terminal Aerodrome Forecast
Issued by NWS Charleston, WV

Current Version | Previous Version | Graphics & Text | Print | Product List | Glossary On
Versions: 1 2 3 4 5 6 7 8 9 10 11 12 13 14 15 16 17 18 19 20 21 22 23 24 25 26 27 28 29
000
FTUS41 KRLX 271400 AAA
TAFEKN
TAF AMD
KEKN 271459Z 2715/2812 28007KT P6SM -SN BKN025
      TEMPO 2715/2716 2SM -SN OVC018
     FM271600 30007KT P6SM -SN OVC015
     FM271900 30007KT P6SM OVC025=

USA.gov is the U.S. government's official web portal to all federal, state and local government web resources and services.